createdAt,value
2023-03-21T00:01:53.812Z,99.85
2023-03-21T00:04:23.558Z,99.72
2023-03-21T00:06:51.583Z,99.60
2023-03-21T00:09:19.965Z,99.52
2023-03-21T00:11:48.444Z,99.58
2023-03-21T00:14:19.018Z,99.61
2023-03-21T00:16:51.743Z,99.60
2023-03-21T00:19:21.096Z,99.63
2023-03-21T00:22:08.869Z,99.68
2023-03-21T00:24:38.035Z,99.62
2023-03-21T00:27:42.969Z,99.49
2023-03-21T00:29:56.635Z,99.67
2023-03-21T00:32:24.952Z,99.68
2023-03-21T00:37:41.525Z,99.66
2023-03-21T00:40:25.474Z,99.68
2023-03-21T00:42:55.737Z,99.63
2023-03-21T00:45:25.190Z,99.76
2023-03-21T00:47:53.417Z,99.71
2023-03-21T00:50:21.503Z,99.76
2023-03-21T00:52:49.581Z,99.93
2023-03-21T00:55:20.133Z,99.90
2023-03-21T00:57:56.164Z,99.99
2023-03-21T01:00:29.872Z,99.99
2023-03-21T01:03:11.224Z,99.99
2023-03-21T01:06:07.256Z,99.99
2023-03-21T01:08:52.096Z,99.99
2023-03-21T01:11:22.822Z,99.99
2023-03-21T01:13:57.944Z,99.99
2023-03-21T01:16:30.396Z,99.99
2023-03-21T01:18:58.376Z,99.99
2023-03-21T01:21:27.684Z,99.99
2023-03-21T01:23:55.834Z,99.99
2023-03-21T01:26:25.032Z,99.99
2023-03-21T01:28:55.304Z,99.99
2023-03-21T01:31:23.648Z,99.99
2023-03-21T01:33:51.605Z,99.99
2023-03-21T01:36:25.242Z,99.99
2023-03-21T01:38:57.179Z,99.99
2023-03-21T01:41:41.895Z,99.99
2023-03-21T01:44:21.968Z,99.99
2023-03-21T01:47:12.156Z,99.99
2023-03-21T01:49:47.950Z,99.99
2023-03-21T01:52:37.000Z,99.99
2023-03-21T01:55:12.767Z,99.99
2023-03-21T01:58:05.211Z,99.99
2023-03-21T02:00:41.649Z,99.99
2023-03-21T02:03:36.140Z,99.99
2023-03-21T02:06:41.202Z,99.99
2023-03-21T02:09:35.667Z,99.99
2023-03-21T02:12:07.287Z,99.99
2023-03-21T02:14:38.297Z,99.99
2023-03-21T02:17:27.047Z,99.99
2023-03-21T02:19:59.502Z,99.99
2023-03-21T02:22:30.907Z,99.99
2023-03-21T02:25:10.783Z,99.99
2023-03-21T02:28:07.885Z,99.91
2023-03-21T02:31:00.353Z,99.86
2023-03-21T02:33:43.563Z,99.65
2023-03-21T02:36:25.685Z,99.72
2023-03-21T02:38:59.502Z,99.82
2023-03-21T02:41:40.169Z,99.99
2023-03-21T02:44:23.231Z,99.64
2023-03-21T02:47:05.268Z,99.66
2023-03-21T02:49:50.555Z,99.58
2023-03-21T02:52:37.431Z,99.50
2023-03-21T02:55:16.257Z,99.58
2023-03-21T02:57:59.256Z,99.50
2023-03-21T03:00:32.873Z,99.49
2023-03-21T03:03:10.096Z,99.33
2023-03-21T03:05:52.386Z,99.19
2023-03-21T03:08:39.419Z,99.07
2023-03-21T03:11:31.229Z,99.04
2023-03-21T03:14:35.748Z,99.23
2023-03-21T03:17:39.457Z,99.15
2023-03-21T03:20:25.742Z,99.00
2023-03-21T03:23:16.923Z,99.19
2023-03-21T03:25:50.118Z,99.28
2023-03-21T03:28:23.388Z,99.35
2023-03-21T03:31:08.174Z,99.34
2023-03-21T03:33:56.390Z,99.37
2023-03-21T03:36:36.791Z,99.42
2023-03-21T03:39:13.770Z,99.44
2023-03-21T03:42:10.246Z,99.44
2023-03-21T03:44:44.058Z,99.38
2023-03-21T03:47:32.308Z,99.43
2023-03-21T03:50:20.752Z,99.37
2023-03-21T03:53:07.173Z,99.34
2023-03-21T03:55:38.808Z,99.29
2023-03-21T03:58:21.566Z,99.48
2023-03-21T04:00:54.298Z,99.43
2023-03-21T04:03:23.299Z,99.54
2023-03-21T04:05:51.738Z,99.50
2023-03-21T04:08:19.802Z,99.33
2023-03-21T04:10:53.209Z,99.51
2023-03-21T04:13:21.929Z,99.34
2023-03-21T04:16:03.793Z,99.35
2023-03-21T04:18:32.303Z,99.32
2023-03-21T04:21:00.492Z,99.20
2023-03-21T04:23:30.808Z,99.18
2023-03-21T04:25:58.870Z,99.16
2023-03-21T04:28:36.382Z,99.31
2023-03-21T04:31:27.154Z,99.28
2023-03-21T04:34:12.160Z,99.18
2023-03-21T04:36:46.865Z,99.22
2023-03-21T04:39:16.126Z,99.29
2023-03-21T04:41:47.520Z,99.19
2023-03-21T04:44:16.723Z,99.35
2023-03-21T04:46:45.204Z,99.42
2023-03-21T04:49:14.144Z,99.41
2023-03-21T04:51:45.230Z,99.51
2023-03-21T04:56:42.939Z,99.45
2023-03-21T04:59:14.136Z,99.44
2023-03-21T05:01:43.677Z,99.59
2023-03-21T05:04:14.379Z,99.66
2023-03-21T05:06:42.896Z,99.53
2023-03-21T05:09:11.736Z,99.58
2023-03-21T05:11:41.191Z,99.59
2023-03-21T05:14:13.824Z,99.56
2023-03-21T05:16:52.977Z,99.46
2023-03-21T05:19:34.892Z,99.27
2023-03-21T05:22:09.504Z,99.10
2023-03-21T05:24:39.382Z,99.34
2023-03-21T05:27:10.423Z,99.22
2023-03-21T05:29:44.273Z,99.20
2023-03-21T05:32:12.782Z,99.00
2023-03-21T05:34:40.846Z,98.91
2023-03-21T05:37:09.026Z,98.87
2023-03-21T05:39:44.686Z,98.95
2023-03-21T05:42:22.013Z,99.01
2023-03-21T05:44:50.267Z,98.90
2023-03-21T05:47:23.091Z,98.86
2023-03-21T05:49:53.194Z,98.81
2023-03-21T05:52:22.503Z,98.93
2023-03-21T05:54:51.036Z,98.90
2023-03-21T05:57:22.716Z,98.70
2023-03-21T05:59:59.549Z,98.73
2023-03-21T06:02:28.855Z,98.76
2023-03-21T06:05:00.769Z,98.91
2023-03-21T06:07:28.698Z,98.98
2023-03-21T06:09:57.047Z,98.74
2023-03-21T06:12:26.128Z,98.85
2023-03-21T06:15:09.333Z,98.71
2023-03-21T06:17:52.794Z,98.95
2023-03-21T06:20:21.517Z,98.69
2023-03-21T06:22:54.189Z,98.57
2023-03-21T06:25:23.036Z,98.45
2023-03-21T06:27:51.129Z,98.49
2023-03-21T06:30:20.131Z,98.52
2023-03-21T06:33:08.082Z,98.33
2023-03-21T06:35:36.287Z,98.01
2023-03-21T06:38:04.669Z,98.11
2023-03-21T06:40:34.811Z,97.95
2023-03-21T06:43:02.918Z,97.74
2023-03-21T06:45:31.364Z,97.73
2023-03-21T06:47:59.456Z,97.65
2023-03-21T06:50:50.358Z,97.69
2023-03-21T06:53:21.159Z,97.73
2023-03-21T06:56:09.545Z,97.62
2023-03-21T06:58:38.332Z,97.74
2023-03-21T07:01:08.147Z,97.62
2023-03-21T07:03:43.941Z,97.64
2023-03-21T07:06:13.424Z,97.61
2023-03-21T07:08:42.154Z,97.29
2023-03-21T07:11:10.722Z,97.11
2023-03-21T07:13:38.709Z,96.98
2023-03-21T07:16:07.629Z,97.18
2023-03-21T07:18:36.844Z,96.91
2023-03-21T07:21:05.143Z,96.99
2023-03-21T07:23:33.165Z,96.96
2023-03-21T07:26:01.626Z,96.94
2023-03-21T07:28:31.359Z,97.01
2023-03-21T07:31:02.759Z,97.35
2023-03-21T07:33:32.197Z,97.17
2023-03-21T07:36:03.239Z,97.01
2023-03-21T07:38:31.862Z,97.06
2023-03-21T07:41:00.892Z,96.42
2023-03-21T07:43:32.383Z,96.06
2023-03-21T07:46:01.138Z,96.06
2023-03-21T07:48:30.373Z,96.02
2023-03-21T07:50:58.454Z,95.85
2023-03-21T07:53:26.562Z,95.42
2023-03-21T07:55:56.639Z,95.24
2023-03-21T07:58:25.732Z,95.00
2023-03-21T08:00:55.747Z,94.65
2023-03-21T08:03:24.167Z,94.61
2023-03-21T08:05:52.324Z,94.30
2023-03-21T08:08:20.804Z,94.54
2023-03-21T08:10:48.800Z,94.69
2023-03-21T08:13:16.926Z,94.43
2023-03-21T08:15:44.889Z,94.45
2023-03-21T08:18:13.065Z,94.97
2023-03-21T08:20:41.250Z,94.94
2023-03-21T08:23:09.520Z,95.24
2023-03-21T08:25:38.913Z,95.02
2023-03-21T08:28:08.246Z,95.15
2023-03-21T08:30:37.811Z,95.25
2023-03-21T08:33:06.150Z,95.57
2023-03-21T08:35:35.372Z,95.46
2023-03-21T08:38:04.824Z,95.52
2023-03-21T08:40:33.936Z,95.19
2023-03-21T08:43:02.014Z,95.58
2023-03-21T08:45:30.475Z,95.42
2023-03-21T08:47:58.571Z,95.27
2023-03-21T08:50:29.671Z,94.91
2023-03-21T08:52:57.672Z,94.95
2023-03-21T08:55:25.849Z,94.89
2023-03-21T08:57:53.937Z,94.75
2023-03-21T09:00:23.698Z,94.72
2023-03-21T09:02:52.591Z,94.38
2023-03-21T09:05:21.582Z,94.77
2023-03-21T09:07:49.908Z,94.05
2023-03-21T09:10:22.207Z,94.09
2023-03-21T09:12:53.001Z,94.13
2023-03-21T09:15:24.539Z,93.97
2023-03-21T09:17:55.914Z,94.03
2023-03-21T09:20:32.962Z,94.03
2023-03-21T09:23:01.979Z,93.94
2023-03-21T09:25:32.042Z,94.32
2023-03-21T09:28:02.022Z,94.40
2023-03-21T09:30:30.191Z,93.76
2023-03-21T09:33:00.701Z,93.31
2023-03-21T09:35:28.906Z,92.45
2023-03-21T09:37:59.681Z,92.50
2023-03-21T09:40:49.356Z,92.12
2023-03-21T09:43:25.062Z,92.51
2023-03-21T09:46:05.801Z,92.37
2023-03-21T09:48:57.145Z,91.91
2023-03-21T09:51:34.981Z,91.42
2023-03-21T09:54:33.508Z,92.07
2023-03-21T09:57:24.921Z,91.70
2023-03-21T09:59:54.826Z,92.08
2023-03-21T10:02:32.338Z,91.74
2023-03-21T10:05:01.213Z,90.87
2023-03-21T10:07:33.892Z,91.07
2023-03-21T10:10:04.652Z,91.31
2023-03-21T10:12:32.951Z,91.76
2023-03-21T10:15:02.100Z,91.96
2023-03-21T10:17:52.024Z,91.61
2023-03-21T10:20:42.910Z,91.86
2023-03-21T10:23:16.189Z,91.49
2023-03-21T10:25:52.817Z,91.31
2023-03-21T10:28:27.965Z,90.56
2023-03-21T10:31:06.399Z,90.61
2023-03-21T10:33:41.649Z,89.91
2023-03-21T10:36:20.845Z,89.86
2023-03-21T10:38:53.882Z,89.88
2023-03-21T10:41:22.037Z,89.45
2023-03-21T10:44:05.253Z,89.49
2023-03-21T10:46:36.144Z,89.10
2023-03-21T10:49:07.354Z,89.42
2023-03-21T10:51:42.033Z,89.47
2023-03-21T10:54:15.934Z,89.29
2023-03-21T10:57:04.881Z,88.99
2023-03-21T10:59:58.125Z,88.72
2023-03-21T11:02:38.370Z,88.32
2023-03-21T11:05:22.600Z,88.28
2023-03-21T11:08:04.564Z,87.87
2023-03-21T11:10:36.925Z,87.95
2023-03-21T11:13:16.670Z,87.05
2023-03-21T11:15:58.564Z,86.23
2023-03-21T11:18:31.263Z,85.96
2023-03-21T11:21:11.864Z,85.24
2023-03-21T11:23:46.971Z,85.62
2023-03-21T11:26:26.261Z,84.95
2023-03-21T11:28:55.144Z,85.28
2023-03-21T11:31:25.170Z,84.99
2023-03-21T11:34:00.093Z,84.03
2023-03-21T11:36:35.389Z,84.10
2023-03-21T11:39:22.696Z,84.44
2023-03-21T11:41:52.765Z,84.91
2023-03-21T11:44:30.274Z,84.80
2023-03-21T11:46:58.829Z,84.90
2023-03-21T11:49:27.813Z,85.18
2023-03-21T11:52:18.377Z,84.95
2023-03-21T11:54:55.427Z,84.14
2023-03-21T11:57:26.628Z,83.86
2023-03-21T12:00:14.838Z,84.31
2023-03-21T12:03:46.887Z,83.65
2023-03-21T12:06:30.509Z,82.84
2023-03-21T12:09:04.540Z,82.48
2023-03-21T12:12:00.551Z,81.90
2023-03-21T12:14:31.651Z,81.55
2023-03-21T12:17:17.732Z,82.13
2023-03-21T12:20:12.134Z,81.94
2023-03-21T12:23:24.532Z,81.59
2023-03-21T12:26:09.998Z,81.62
2023-03-21T12:29:10.295Z,81.40
2023-03-21T12:32:15.481Z,81.59
2023-03-21T12:35:01.634Z,81.23
2023-03-21T12:37:45.367Z,81.64
2023-03-21T12:40:49.324Z,82.21
2023-03-21T12:43:34.311Z,81.86
2023-03-21T12:46:05.802Z,82.01
2023-03-21T12:48:43.409Z,81.66
2023-03-21T12:51:15.842Z,81.27
2023-03-21T12:54:08.778Z,80.77
2023-03-21T12:57:04.573Z,80.75
2023-03-21T12:59:43.091Z,80.37
2023-03-21T13:02:20.373Z,79.93
2023-03-21T13:05:12.813Z,79.37
2023-03-21T13:07:44.468Z,79.44
2023-03-21T13:10:24.264Z,78.91
2023-03-21T13:13:04.895Z,79.27
2023-03-21T13:15:55.822Z,79.28
2023-03-21T13:19:17.747Z,79.11
2023-03-21T13:22:10.279Z,78.45
2023-03-21T13:24:59.427Z,78.63
2023-03-21T13:27:30.517Z,78.01
2023-03-21T13:30:18.153Z,78.84
2023-03-21T13:32:51.905Z,78.54
2023-03-21T13:35:29.101Z,78.23
2023-03-21T13:38:12.813Z,77.91
2023-03-21T13:41:03.249Z,77.65
2023-03-21T13:44:05.881Z,78.05
2023-03-21T13:46:58.234Z,76.77
2023-03-21T13:49:35.346Z,76.64
2023-03-21T13:52:09.391Z,76.42
2023-03-21T13:54:53.341Z,75.08
2023-03-21T13:57:32.072Z,74.84
2023-03-21T14:00:30.353Z,75.22
2023-03-21T14:03:08.504Z,75.26
2023-03-21T14:05:38.908Z,74.45
2023-03-21T14:08:24.788Z,73.95
2023-03-21T14:11:04.065Z,74.33
2023-03-21T14:13:35.028Z,74.00
2023-03-21T14:16:16.897Z,74.13
2023-03-21T14:18:55.632Z,74.12
2023-03-21T14:21:26.614Z,74.25
2023-03-21T14:24:14.384Z,73.68
2023-03-21T14:26:46.073Z,73.02
2023-03-21T14:29:35.307Z,73.27
2023-03-21T14:32:05.692Z,72.50
2023-03-21T14:34:36.103Z,72.93
2023-03-21T14:37:10.721Z,72.48
2023-03-21T14:39:38.995Z,73.31
2023-03-21T14:42:13.792Z,73.48
2023-03-21T14:44:54.943Z,74.10
2023-03-21T14:47:27.434Z,74.54
2023-03-21T14:49:56.915Z,74.28
2023-03-21T14:52:33.272Z,73.98
2023-03-21T14:55:07.943Z,73.80
2023-03-21T14:57:36.362Z,74.05
2023-03-21T15:00:13.670Z,74.23
2023-03-21T15:02:44.748Z,74.31
2023-03-21T15:05:25.175Z,75.09
2023-03-21T15:07:58.654Z,75.05
2023-03-21T15:10:30.826Z,74.77
2023-03-21T15:13:01.306Z,74.44
2023-03-21T15:15:32.152Z,74.53
2023-03-21T15:18:05.951Z,74.04
2023-03-21T15:20:37.810Z,73.99
2023-03-21T15:23:26.481Z,73.18
2023-03-21T15:25:55.539Z,72.87
2023-03-21T15:28:25.769Z,73.21
2023-03-21T15:30:55.148Z,73.04
2023-03-21T15:33:25.928Z,73.60
2023-03-21T15:35:56.857Z,73.57
2023-03-21T15:38:55.044Z,74.44
2023-03-21T15:41:23.154Z,74.74
2023-03-21T15:44:11.435Z,74.58
2023-03-21T15:46:46.207Z,76.01
2023-03-21T15:49:16.929Z,76.57
2023-03-21T15:52:05.475Z,77.19
2023-03-21T15:54:55.583Z,76.72
2023-03-21T15:57:33.190Z,76.77
2023-03-21T16:00:14.536Z,76.58
2023-03-21T16:02:43.021Z,77.00
2023-03-21T16:05:29.298Z,76.25
2023-03-21T16:08:27.431Z,76.19
2023-03-21T16:11:05.766Z,76.30
2023-03-21T16:13:33.736Z,75.90
2023-03-21T16:16:02.113Z,76.17
2023-03-21T16:18:31.913Z,75.84
2023-03-21T16:21:00.019Z,75.82
2023-03-21T16:23:28.755Z,75.77
2023-03-21T16:25:58.954Z,75.88
2023-03-21T16:28:26.940Z,76.20
2023-03-21T16:30:54.998Z,76.71
2023-03-21T16:33:25.504Z,76.55
2023-03-21T16:35:57.467Z,76.97
2023-03-21T16:38:28.655Z,77.39
2023-03-21T16:40:56.770Z,77.32
2023-03-21T16:43:25.422Z,77.79
2023-03-21T16:45:53.523Z,78.09
2023-03-21T16:48:21.611Z,78.22
2023-03-21T16:50:49.838Z,78.35
2023-03-21T16:53:18.004Z,78.61
2023-03-21T16:55:46.254Z,78.60
2023-03-21T16:58:16.861Z,78.89
2023-03-21T17:00:45.059Z,79.84
2023-03-21T17:03:21.826Z,80.24
2023-03-21T17:05:50.541Z,81.16
2023-03-21T17:08:22.044Z,82.33
2023-03-21T17:10:51.591Z,82.95
2023-03-21T17:13:19.526Z,83.08
2023-03-21T17:15:47.513Z,83.51
2023-03-21T17:18:15.993Z,83.36
2023-03-21T17:20:44.032Z,83.74
2023-03-21T17:23:12.004Z,84.25
2023-03-21T17:25:39.967Z,85.24
2023-03-21T17:28:07.998Z,85.60
2023-03-21T17:30:40.011Z,86.29
2023-03-21T17:33:08.441Z,86.69
2023-03-21T17:35:36.330Z,87.13
2023-03-21T17:38:17.198Z,87.63
2023-03-21T17:40:45.403Z,87.93
2023-03-21T17:43:20.392Z,88.25
2023-03-21T17:45:48.508Z,88.53
2023-03-21T17:48:16.799Z,88.55
2023-03-21T17:50:45.319Z,88.64
2023-03-21T17:53:13.362Z,88.95
2023-03-21T17:55:41.381Z,88.79
2023-03-21T17:58:10.660Z,88.76
2023-03-21T18:00:40.737Z,88.96
2023-03-21T18:03:08.886Z,89.00
2023-03-21T18:05:37.522Z,89.28
2023-03-21T18:08:10.834Z,89.31
2023-03-21T18:10:41.312Z,89.63
2023-03-21T18:13:09.836Z,89.98
2023-03-21T18:15:38.406Z,90.07
2023-03-21T18:18:06.863Z,90.20
2023-03-21T18:20:51.311Z,90.51
2023-03-21T18:23:20.785Z,90.80
2023-03-21T18:25:52.559Z,90.78
2023-03-21T18:28:22.346Z,90.91
2023-03-21T18:31:08.481Z,90.90
2023-03-21T18:33:40.530Z,91.08
2023-03-21T18:36:10.549Z,91.20
2023-03-21T18:38:39.404Z,91.39
2023-03-21T18:41:08.817Z,91.15
2023-03-21T18:46:25.921Z,91.04
2023-03-21T18:48:53.918Z,91.08
2023-03-21T18:51:22.830Z,91.19
2023-03-21T18:53:51.501Z,91.27
2023-03-21T18:57:05.960Z,91.36
2023-03-21T18:59:08.547Z,91.56
2023-03-21T19:01:36.620Z,91.55
2023-03-21T19:04:22.959Z,91.72
2023-03-21T19:06:53.348Z,91.78
2023-03-21T19:09:29.451Z,92.02
2023-03-21T19:12:01.966Z,92.27
2023-03-21T19:14:30.142Z,92.26
2023-03-21T19:17:55.889Z,92.40
2023-03-21T19:19:47.879Z,92.36
2023-03-21T19:22:16.274Z,92.25
2023-03-21T19:24:44.451Z,92.32
2023-03-21T19:27:13.255Z,92.25
2023-03-21T19:29:41.533Z,92.11
2023-03-21T19:32:09.455Z,92.26
2023-03-21T19:34:37.518Z,92.15
2023-03-21T19:37:06.029Z,92.10
2023-03-21T19:39:34.131Z,92.05
2023-03-21T19:42:15.707Z,92.11
2023-03-21T19:44:45.279Z,91.96
2023-03-21T19:47:13.551Z,92.09
2023-03-21T19:52:29.790Z,92.37
2023-03-21T19:54:57.997Z,92.48
2023-03-21T19:57:25.937Z,92.77
2023-03-21T19:59:54.931Z,92.81
2023-03-21T20:02:35.140Z,92.92
2023-03-21T20:05:08.096Z,92.83
2023-03-21T20:07:36.341Z,93.07
2023-03-21T20:10:05.867Z,93.02
2023-03-21T20:12:34.136Z,93.03
2023-03-21T20:15:16.591Z,93.08
2023-03-21T20:17:46.572Z,93.18
2023-03-21T20:20:17.437Z,93.30
2023-03-21T20:23:06.400Z,93.48
2023-03-21T20:25:38.854Z,93.67
2023-03-21T20:28:15.802Z,93.83
2023-03-21T20:30:53.539Z,93.79
2023-03-21T20:33:22.153Z,93.96
2023-03-21T20:38:43.609Z,93.58
2023-03-21T20:41:12.032Z,93.49
2023-03-21T20:46:28.494Z,93.32
2023-03-21T20:48:58.352Z,93.43
2023-03-21T20:54:16.010Z,93.32
2023-03-21T20:56:44.635Z,93.21
2023-03-21T20:59:23.231Z,93.12
2023-03-21T21:01:54.411Z,92.89
2023-03-21T21:04:23.207Z,92.74
2023-03-21T21:06:59.080Z,92.54
2023-03-21T21:09:27.054Z,92.35
2023-03-21T21:12:10.963Z,92.29
2023-03-21T21:14:39.287Z,91.91
2023-03-21T21:17:24.577Z,91.73
2023-03-21T21:19:55.475Z,91.19
2023-03-21T21:22:23.641Z,90.92
2023-03-21T21:24:51.847Z,90.77
2023-03-21T21:27:20.100Z,91.04
2023-03-21T21:29:50.041Z,90.84
2023-03-21T21:32:19.310Z,91.12
2023-03-21T21:34:48.101Z,91.21
2023-03-21T21:37:16.128Z,91.40
2023-03-21T21:39:44.613Z,91.50
2023-03-21T21:42:13.573Z,92.02
2023-03-21T21:44:44.700Z,92.32
2023-03-21T21:47:13.476Z,92.75
2023-03-21T21:49:41.912Z,93.14
2023-03-21T21:52:13.593Z,93.32
2023-03-21T21:54:45.714Z,93.82
2023-03-21T21:57:13.943Z,93.86
2023-03-21T21:59:42.024Z,94.18
2023-03-21T22:02:14.141Z,94.25
2023-03-21T22:04:43.001Z,94.33
2023-03-21T22:07:14.686Z,94.49
2023-03-21T22:09:44.469Z,94.40
2023-03-21T22:12:12.446Z,94.34
2023-03-21T22:14:40.502Z,94.35
2023-03-21T22:17:08.776Z,94.07
2023-03-21T22:19:37.839Z,94.13
2023-03-21T22:22:07.774Z,93.99
2023-03-21T22:24:36.051Z,93.71
2023-03-21T22:27:04.566Z,93.52
2023-03-21T22:29:32.725Z,93.33
2023-03-21T22:32:00.861Z,93.16
2023-03-21T22:34:28.950Z,93.03
2023-03-21T22:37:00.139Z,93.15
2023-03-21T22:39:28.736Z,92.94
2023-03-21T22:42:03.247Z,92.56
2023-03-21T22:44:34.993Z,92.17
2023-03-21T22:47:05.321Z,92.16
2023-03-21T22:49:33.700Z,92.03
2023-03-21T22:52:03.395Z,92.19
2023-03-21T22:54:32.331Z,92.53
2023-03-21T22:57:00.267Z,92.83
2023-03-21T22:59:28.977Z,93.03
2023-03-21T23:01:57.013Z,93.24
2023-03-21T23:04:27.306Z,93.49
2023-03-21T23:06:55.531Z,93.40
2023-03-21T23:09:23.899Z,93.18
2023-03-21T23:11:51.845Z,92.90
2023-03-21T23:14:21.100Z,92.57
2023-03-21T23:16:52.261Z,92.02
2023-03-21T23:19:21.812Z,91.98
2023-03-21T23:21:50.178Z,92.00
2023-03-21T23:24:18.162Z,92.07
2023-03-21T23:26:46.379Z,92.09
2023-03-21T23:29:14.420Z,92.21
2023-03-21T23:31:42.286Z,92.25
2023-03-21T23:34:12.307Z,92.15
2023-03-21T23:36:40.783Z,92.00
2023-03-21T23:39:09.249Z,91.60
2023-03-21T23:41:37.215Z,91.52
2023-03-21T23:44:05.970Z,91.29
2023-03-21T23:46:34.023Z,91.25
2023-03-21T23:49:02.086Z,91.18
2023-03-21T23:51:29.913Z,91.13
2023-03-21T23:53:58.608Z,91.06
2023-03-21T23:56:27.466Z,91.04
2023-03-21T23:58:57.097Z,90.94
